Time;durP1;ratioP1;P1;durP2;ratioP2;P2;SDS_P1;SDS_P2;PMS_P1;PMS_P2;Temp;Humidity;BMP_temperature;BMP_pressure;BME280_temperature;BME280_humidity;BME280_pressure;Samples;Min_cycle;Max_cycle;Signal;HPM_P1;HPM_P2
2023/08/30 00:00:56;;;;;;;6.10;4.72;;;15.50;99.90;;;;;;4952306;28;20110;-71
2023/08/30 00:03:22;;;;;;;8.27;5.28;;;15.50;99.90;;;;;;4962353;28;20027;-72
2023/08/30 00:05:48;;;;;;;8.73;5.40;;;15.50;99.90;;;;;;4966327;28;20015;-72
2023/08/30 00:08:19;;;;;;;7.18;4.68;;;15.50;99.90;;;;;;4973197;28;20033;-71
2023/08/30 00:10:45;;;;;;;6.60;5.05;;;15.50;99.90;;;;;;4960868;28;20066;-71
2023/08/30 00:13:11;;;;;;;8.32;4.93;;;15.40;99.90;;;;;;4967713;28;20054;-72
2023/08/30 00:15:37;;;;;;;7.25;4.85;;;15.40;99.90;;;;;;4962489;28;20019;-72
2023/08/30 00:18:03;;;;;;;8.00;5.68;;;15.40;99.90;;;;;;4966525;28;20047;-71
2023/08/30 00:20:29;;;;;;;7.25;4.88;;;15.40;99.90;;;;;;4970158;28;20023;-72
2023/08/30 00:22:55;;;;;;;8.00;5.22;;;15.30;99.90;;;;;;4963568;28;20118;-71
2023/08/30 00:25:20;;;;;;;7.22;5.07;;;15.30;99.90;;;;;;4954661;29;20050;-72
2023/08/30 00:27:46;;;;;;;9.13;5.22;;;15.30;99.90;;;;;;4969847;28;20031;-71
2023/08/30 00:30:15;;;;;;;10.45;5.68;;;15.30;99.90;;;;;;4967558;28;20049;-71
2023/08/30 00:32:44;;;;;;;11.07;5.30;;;15.30;99.90;;;;;;4961890;28;20030;-71
2023/08/30 00:35:10;;;;;;;7.72;5.50;;;15.30;99.90;;;;;;4965410;28;20031;-71
2023/08/30 00:37:35;;;;;;;6.75;5.25;;;15.30;99.90;;;;;;4958152;28;20040;-71
2023/08/30 00:40:01;;;;;;;7.00;4.90;;;15.30;99.90;;;;;;4967480;28;20031;-71
2023/08/30 00:42:27;;;;;;;6.82;5.07;;;15.30;99.90;;;;;;4969470;28;20034;-72
2023/08/30 00:44:53;;;;;;;6.47;4.85;;;15.20;99.90;;;;;;4962552;28;20027;-72
2023/08/30 00:47:18;;;;;;;7.88;6.07;;;15.20;99.90;;;;;;4963224;28;20414;-71
2023/08/30 00:49:44;;;;;;;6.93;5.32;;;15.20;99.90;;;;;;4968609;28;20062;-72
2023/08/30 00:52:14;;;;;;;7.68;5.25;;;15.20;99.90;;;;;;4965806;28;20050;-71
2023/08/30 00:54:39;;;;;;;8.00;5.20;;;15.20;99.90;;;;;;4961920;28;20023;-70
2023/08/30 00:57:06;;;;;;;7.72;5.50;;;15.20;99.90;;;;;;4966794;28;20555;-72
2023/08/30 00:59:33;;;;;;;7.38;5.75;;;15.20;99.90;;;;;;4969175;28;20064;-72
2023/08/30 01:02:00;;;;;;;6.40;4.78;;;15.20;99.90;;;;;;4962641;28;20057;-72
2023/08/30 01:04:27;;;;;;;6.82;5.15;;;15.10;99.90;;;;;;4971273;28;20026;-71
2023/08/30 01:06:53;;;;;;;7.10;5.45;;;15.10;99.90;;;;;;4961534;28;20023;-72
2023/08/30 01:09:19;;;;;;;6.80;5.25;;;15.10;99.90;;;;;;4963578;28;20042;-72
2023/08/30 01:11:52;;;;;;;7.35;5.57;;;15.10;99.90;;;;;;4959089;28;20024;-71
2023/08/30 01:14:24;;;;;;;10.35;6.20;;;15.10;99.90;;;;;;4948944;28;20033;-72
2023/08/30 01:16:50;;;;;;;8.80;5.00;;;15.10;99.90;;;;;;4961789;28;20038;-72
2023/08/30 01:19:57;;;;;;;7.35;5.10;;;15.00;99.90;;;;;;4968586;28;20027;-71
2023/08/30 01:22:51;;;;;;;8.23;5.93;;;15.00;99.90;;;;;;4968629;28;20034;-71
2023/08/30 01:25:55;;;;;;;9.07;5.65;;;14.90;99.90;;;;;;4968013;28;20031;-70
2023/08/30 01:28:24;;;;;;;7.22;5.20;;;14.90;99.90;;;;;;4954260;28;20548;-71
2023/08/30 01:30:54;;;;;;;9.40;5.05;;;14.90;99.90;;;;;;4961273;28;20023;-71
2023/08/30 01:33:24;;;;;;;7.10;5.27;;;14.90;99.90;;;;;;4965209;28;20385;-71
2023/08/30 01:35:50;;;;;;;6.50;5.22;;;14.80;99.90;;;;;;4968779;28;20034;-72
2023/08/30 01:38:16;;;;;;;8.35;5.00;;;14.80;99.90;;;;;;4962296;28;20054;-72
2023/08/30 01:40:46;;;;;;;8.20;5.88;;;14.70;99.90;;;;;;4943748;28;20031;-71
2023/08/30 01:43:12;;;;;;;10.18;5.72;;;14.70;99.90;;;;;;4940694;29;20027;-71
2023/08/30 01:45:41;;;;;;;8.90;5.68;;;14.70;99.90;;;;;;4967407;28;20045;-71
2023/08/30 01:48:11;;;;;;;9.10;5.93;;;14.70;99.90;;;;;;4943022;28;20023;-71
2023/08/30 01:50:42;;;;;;;15.87;5.70;;;14.70;99.90;;;;;;4963358;28;20011;-71
2023/08/30 01:53:12;;;;;;;7.18;5.10;;;14.60;99.90;;;;;;4968245;28;20038;-72
2023/08/30 01:55:39;;;;;;;8.15;5.70;;;14.60;99.90;;;;;;4965557;28;20110;-71
2023/08/30 01:58:06;;;;;;;7.13;4.72;;;14.60;99.90;;;;;;4960408;28;20025;-72
2023/08/30 02:00:31;;;;;;;6.30;5.45;;;14.60;99.90;;;;;;4964990;28;20023;-72
2023/08/30 02:02:57;;;;;;;9.60;5.35;;;14.60;99.90;;;;;;4965032;28;20075;-71
2023/08/30 02:05:23;;;;;;;6.65;5.05;;;14.60;99.90;;;;;;4967022;28;20039;-71
2023/08/30 02:08:04;;;;;;;7.68;4.90;;;14.60;99.90;;;;;;4950115;28;20023;-71
2023/08/30 02:10:37;;;;;;;6.57;5.13;;;14.60;99.90;;;;;;4946022;28;20090;-71
2023/08/30 02:13:07;;;;;;;8.13;6.00;;;14.60;99.90;;;;;;4954361;29;20028;-71
2023/08/30 02:15:37;;;;;;;8.57;5.20;;;14.60;99.90;;;;;;4967898;28;20082;-71
2023/08/30 02:18:05;;;;;;;8.45;5.45;;;14.60;99.90;;;;;;4963186;28;20022;-71
2023/08/30 02:20:31;;;;;;;6.20;4.70;;;14.60;99.90;;;;;;4960057;28;20030;-71
2023/08/30 02:23:00;;;;;;;7.13;5.40;;;14.60;99.90;;;;;;4965847;28;20031;-72
2023/08/30 02:25:26;;;;;;;7.70;5.38;;;14.60;99.90;;;;;;4950403;28;20019;-71
2023/08/30 02:27:52;;;;;;;9.27;6.00;;;14.60;99.90;;;;;;4954066;28;20049;-70
2023/08/30 02:30:18;;;;;;;7.05;5.53;;;14.60;99.90;;;;;;4966065;28;20061;-71
2023/08/30 02:32:44;;;;;;;8.07;5.57;;;14.60;99.90;;;;;;4959594;28;20164;-71
2023/08/30 02:35:10;;;;;;;8.70;6.43;;;14.60;99.90;;;;;;4963650;28;20406;-72
2023/08/30 02:37:36;;;;;;;9.75;6.78;;;14.70;99.90;;;;;;4949866;28;20047;-71
2023/08/30 02:40:06;;;;;;;8.00;6.10;;;14.70;99.90;;;;;;4962657;28;20029;-71
2023/08/30 02:42:33;;;;;;;14.20;6.63;;;14.70;99.90;;;;;;4959307;28;20408;-71
2023/08/30 02:44:58;;;;;;;7.03;5.53;;;14.70;99.90;;;;;;4966291;28;20027;-71
2023/08/30 02:47:24;;;;;;;7.63;5.50;;;14.70;99.90;;;;;;4966575;28;20027;-71
2023/08/30 02:49:49;;;;;;;7.47;6.13;;;14.70;99.90;;;;;;4959484;28;20549;-71
2023/08/30 02:52:15;;;;;;;7.97;5.95;;;14.70;99.90;;;;;;4962320;28;20042;-71
2023/08/30 02:54:41;;;;;;;7.72;6.10;;;14.80;99.90;;;;;;4967409;28;20502;-71
2023/08/30 02:57:06;;;;;;;7.85;5.88;;;14.80;99.90;;;;;;4961093;28;20570;-71
2023/08/30 02:59:32;;;;;;;7.53;6.22;;;14.80;99.90;;;;;;4959168;28;20090;-72
2023/08/30 03:01:57;;;;;;;30.42;8.43;;;14.80;99.90;;;;;;4966679;28;20023;-71
2023/08/30 03:04:23;;;;;;;8.38;6.45;;;14.80;99.90;;;;;;4965821;28;20039;-71
2023/08/30 03:06:49;;;;;;;9.38;6.32;;;14.90;99.90;;;;;;4959384;28;20030;-71
2023/08/30 03:09:14;;;;;;;8.82;6.05;;;14.90;99.90;;;;;;4960654;28;20031;-72
2023/08/30 03:11:40;;;;;;;9.75;6.50;;;14.90;99.90;;;;;;4957226;28;20023;-71
2023/08/30 03:14:06;;;;;;;10.27;6.75;;;14.90;99.90;;;;;;4967067;28;20702;-71
2023/08/30 03:16:31;;;;;;;7.68;5.82;;;14.90;99.90;;;;;;4959632;28;20023;-72
2023/08/30 03:18:57;;;;;;;11.02;6.18;;;14.80;99.90;;;;;;4957621;28;20081;-71
2023/08/30 03:21:23;;;;;;;8.88;6.63;;;14.80;99.90;;;;;;4969539;28;20054;-71
2023/08/30 03:23:49;;;;;;;9.75;7.78;;;14.80;99.90;;;;;;4976915;28;20026;-71
2023/08/30 03:26:16;;;;;;;9.43;7.40;;;14.80;99.90;;;;;;4960239;28;20054;-71
2023/08/30 03:28:43;;;;;;;11.93;7.72;;;14.80;99.90;;;;;;4959454;28;20875;-71
2023/08/30 03:31:16;;;;;;;9.50;7.18;;;14.80;99.90;;;;;;4955184;28;20257;-71
2023/08/30 03:33:43;;;;;;;10.52;7.63;;;14.70;99.90;;;;;;4958823;28;20015;-71
2023/08/30 03:36:14;;;;;;;10.70;7.95;;;14.80;99.90;;;;;;4955729;28;20034;-72
2023/08/30 03:38:40;;;;;;;12.55;8.50;;;14.80;99.90;;;;;;4959032;28;20039;-72
2023/08/30 03:41:07;;;;;;;11.27;8.13;;;14.80;99.90;;;;;;4954350;28;20031;-71
2023/08/30 03:43:33;;;;;;;10.27;7.20;;;14.80;99.90;;;;;;4961678;28;20031;-72
2023/08/30 03:46:00;;;;;;;10.38;7.10;;;14.80;99.90;;;;;;4958768;28;20028;-72
2023/08/30 03:48:30;;;;;;;10.48;8.07;;;14.80;99.90;;;;;;4941573;28;20489;-72
2023/08/30 03:50:56;;;;;;;9.60;7.38;;;14.70;99.90;;;;;;4959686;28;20034;-71
2023/08/30 03:53:23;;;;;;;11.50;8.43;;;14.70;99.90;;;;;;4966765;28;20027;-71
2023/08/30 03:55:51;;;;;;;12.95;8.57;;;14.70;99.90;;;;;;4958815;28;20023;-71
2023/08/30 03:58:20;;;;;;;9.48;7.45;;;14.70;99.90;;;;;;4966402;28;20012;-71
2023/08/30 04:00:46;;;;;;;9.52;7.22;;;14.70;99.90;;;;;;4955400;28;20058;-72
2023/08/30 04:03:14;;;;;;;10.50;8.23;;;14.70;99.90;;;;;;4965823;28;20625;-72
2023/08/30 04:05:40;;;;;;;11.48;8.68;;;14.60;99.90;;;;;;4962847;28;20081;-71
2023/08/30 04:08:07;;;;;;;12.35;8.63;;;14.60;99.90;;;;;;4954823;28;20027;-72
2023/08/30 04:10:37;;;;;;;12.57;8.65;;;14.60;99.90;;;;;;4956792;28;20019;-71
2023/08/30 04:13:03;;;;;;;9.93;7.40;;;14.60;99.90;;;;;;4962833;28;20076;-71
2023/08/30 04:15:35;;;;;;;10.70;8.07;;;14.60;99.90;;;;;;4958712;28;20494;-72
2023/08/30 04:18:04;;;;;;;13.77;9.60;;;14.60;99.90;;;;;;4960514;28;20023;-72
2023/08/30 04:20:30;;;;;;;12.18;9.02;;;14.60;99.90;;;;;;4935708;28;20123;-71
2023/08/30 04:23:01;;;;;;;11.13;7.82;;;14.50;99.90;;;;;;4954602;28;20028;-71
2023/08/30 04:25:27;;;;;;;9.98;7.47;;;14.50;99.90;;;;;;4968242;28;20065;-71
2023/08/30 04:27:53;;;;;;;10.10;7.07;;;14.40;99.90;;;;;;4955056;29;20075;-71
2023/08/30 04:30:19;;;;;;;10.40;7.75;;;14.40;99.90;;;;;;4968191;28;20035;-72
2023/08/30 04:32:45;;;;;;;11.50;8.15;;;14.40;99.90;;;;;;4961741;28;20055;-71
2023/08/30 04:35:11;;;;;;;10.50;8.18;;;14.40;99.90;;;;;;4965424;28;20062;-71
2023/08/30 04:37:39;;;;;;;12.98;7.63;;;14.40;99.90;;;;;;4969395;28;20046;-71
2023/08/30 04:40:08;;;;;;;10.00;8.07;;;14.40;99.90;;;;;;4947459;28;20035;-71
2023/08/30 04:42:35;;;;;;;11.95;8.80;;;14.40;99.90;;;;;;4961889;28;20037;-71
2023/08/30 04:45:01;;;;;;;12.88;7.70;;;14.30;99.90;;;;;;4950858;29;20110;-71
2023/08/30 04:47:29;;;;;;;9.80;7.68;;;14.30;99.90;;;;;;4969019;28;20031;-72
2023/08/30 04:49:58;;;;;;;11.57;8.02;;;14.30;99.90;;;;;;4961306;28;20019;-71
2023/08/30 04:52:23;;;;;;;10.48;8.63;;;14.20;99.90;;;;;;4959100;28;20023;-71
2023/08/30 04:54:49;;;;;;;10.65;7.88;;;14.20;99.90;;;;;;4959559;28;20019;-72
2023/08/30 04:57:23;;;;;;;12.27;8.35;;;14.20;99.90;;;;;;4973042;28;20054;-71
2023/08/30 04:59:49;;;;;;;9.30;7.55;;;14.10;99.90;;;;;;4968890;28;20038;-71
2023/08/30 05:02:15;;;;;;;10.32;8.30;;;14.00;99.90;;;;;;4965189;28;20035;-71
2023/08/30 05:04:41;;;;;;;13.07;8.60;;;14.00;99.90;;;;;;4956704;28;20026;-72
2023/08/30 05:07:06;;;;;;;9.95;7.50;;;14.00;99.90;;;;;;4973583;28;20038;-71
2023/08/30 05:09:34;;;;;;;10.30;7.85;;;14.00;99.90;;;;;;4970213;28;20026;-71
2023/08/30 05:12:00;;;;;;;11.98;8.40;;;13.90;99.90;;;;;;4960774;28;20050;-71
2023/08/30 05:14:28;;;;;;;14.60;8.30;;;13.90;99.90;;;;;;4957804;28;20110;-72
2023/08/30 05:16:54;;;;;;;12.30;7.82;;;13.90;99.90;;;;;;4955720;28;20035;-72
2023/08/30 05:19:20;;;;;;;10.75;8.02;;;13.80;99.90;;;;;;4955969;28;20038;-72
2023/08/30 05:21:45;;;;;;;11.10;8.15;;;13.80;99.90;;;;;;4950592;28;20031;-71
2023/08/30 05:24:11;;;;;;;11.30;8.50;;;13.80;99.90;;;;;;4958381;28;20035;-71
2023/08/30 05:26:37;;;;;;;10.98;8.25;;;13.80;99.90;;;;;;4960484;28;20023;-71
2023/08/30 05:29:06;;;;;;;12.35;8.15;;;13.90;99.90;;;;;;4939473;28;20047;-71
2023/08/30 05:31:31;;;;;;;10.85;7.75;;;13.90;99.90;;;;;;4958066;28;20735;-71
2023/08/30 05:33:57;;;;;;;10.65;8.07;;;13.90;99.90;;;;;;4954646;29;20039;-71
2023/08/30 05:36:23;;;;;;;12.63;8.65;;;13.90;99.90;;;;;;4954797;28;20113;-72
2023/08/30 05:38:48;;;;;;;11.73;8.60;;;13.90;99.90;;;;;;4961272;28;20090;-71
2023/08/30 05:41:14;;;;;;;13.32;8.32;;;13.90;99.90;;;;;;4967994;28;20023;-71
2023/08/30 05:43:39;;;;;;;10.88;7.55;;;13.90;99.90;;;;;;4971318;28;20389;-72
2023/08/30 05:46:05;;;;;;;12.75;8.80;;;13.90;99.90;;;;;;4967775;28;20379;-72
2023/08/30 05:48:32;;;;;;;10.32;8.38;;;13.90;99.90;;;;;;4969186;28;20027;-72
2023/08/30 05:50:58;;;;;;;13.60;9.23;;;13.90;99.90;;;;;;4938005;28;20051;-71
2023/08/30 05:53:26;;;;;;;11.10;8.52;;;13.90;99.90;;;;;;4966435;28;20050;-71
2023/08/30 05:55:52;;;;;;;10.52;8.45;;;13.90;99.90;;;;;;4954803;28;20058;-71
2023/08/30 05:58:18;;;;;;;12.50;9.38;;;13.90;99.90;;;;;;4955988;28;20014;-71
2023/08/30 06:00:44;;;;;;;13.05;10.25;;;14.00;99.90;;;;;;4956977;28;20046;-70
2023/08/30 06:03:10;;;;;;;14.10;9.43;;;14.00;99.90;;;;;;4964419;28;20027;-72
2023/08/30 06:05:36;;;;;;;14.10;10.70;;;14.10;99.90;;;;;;4947587;28;20034;-72
2023/08/30 06:08:02;;;;;;;15.32;10.20;;;14.10;99.90;;;;;;4960603;28;20111;-72
2023/08/30 06:10:28;;;;;;;12.95;8.88;;;14.20;99.90;;;;;;4941668;28;20042;-72
2023/08/30 06:12:54;;;;;;;11.07;9.13;;;14.30;99.90;;;;;;4970308;28;20296;-72
2023/08/30 06:15:19;;;;;;;13.43;9.57;;;14.30;99.90;;;;;;4967562;28;20061;-72
2023/08/30 06:17:46;;;;;;;9.65;7.78;;;14.30;99.90;;;;;;4969720;28;20042;-72
2023/08/30 06:20:12;;;;;;;12.70;9.45;;;14.40;99.90;;;;;;4955677;28;20034;-72
2023/08/30 06:22:38;;;;;;;12.70;9.63;;;14.40;99.90;;;;;;4966817;28;20154;-71
2023/08/30 06:25:07;;;;;;;12.10;9.05;;;14.50;99.90;;;;;;4960779;28;20118;-72
2023/08/30 06:27:33;;;;;;;15.23;11.70;;;14.50;99.90;;;;;;4953143;29;20406;-71
2023/08/30 06:29:58;;;;;;;17.17;13.02;;;14.50;99.90;;;;;;4953678;29;20024;-71
2023/08/30 06:32:24;;;;;;;15.40;12.65;;;14.60;99.90;;;;;;4953808;29;20019;-71
2023/08/30 06:34:50;;;;;;;14.85;10.23;;;14.60;99.90;;;;;;4961226;28;20062;-71
2023/08/30 06:37:17;;;;;;;18.48;11.50;;;14.60;99.90;;;;;;4964442;28;20059;-71
2023/08/30 06:39:42;;;;;;;18.35;11.00;;;14.70;99.90;;;;;;4946821;29;20031;-71
2023/08/30 06:42:08;;;;;;;17.83;11.57;;;14.70;99.90;;;;;;4949387;29;20083;-71
2023/08/30 06:44:33;;;;;;;18.30;11.57;;;14.70;99.90;;;;;;4967455;28;20026;-71
2023/08/30 06:46:59;;;;;;;11.50;8.73;;;14.80;99.90;;;;;;4961006;28;20034;-71
2023/08/30 06:49:25;;;;;;;15.80;10.20;;;14.80;99.90;;;;;;4960716;28;20117;-71
2023/08/30 06:51:50;;;;;;;13.73;10.30;;;14.80;99.90;;;;;;4954841;28;20097;-70
2023/08/30 06:54:16;;;;;;;13.95;9.73;;;14.90;99.90;;;;;;4955855;28;20062;-71
2023/08/30 06:56:58;;;;;;;15.52;10.68;;;14.90;99.90;;;;;;4967545;28;20031;-71
2023/08/30 06:59:24;;;;;;;13.98;10.10;;;14.90;99.90;;;;;;4965278;28;20038;-71
2023/08/30 07:01:49;;;;;;;12.95;10.27;;;15.00;99.90;;;;;;4945479;28;20038;-71
2023/08/30 07:04:15;;;;;;;13.38;10.32;;;15.00;99.90;;;;;;4953208;28;20054;-71
2023/08/30 07:06:41;;;;;;;14.50;10.57;;;15.00;99.90;;;;;;4965402;28;20018;-71
2023/08/30 07:09:07;;;;;;;12.07;9.32;;;15.00;99.90;;;;;;4963256;28;20050;-71
2023/08/30 07:11:34;;;;;;;13.95;10.50;;;15.00;99.90;;;;;;4956974;28;20030;-71
2023/08/30 07:14:00;;;;;;;15.15;10.23;;;15.00;99.90;;;;;;4965413;28;20026;-71
2023/08/30 07:16:25;;;;;;;14.80;10.18;;;15.10;99.90;;;;;;4962840;28;20019;-71
2023/08/30 07:18:51;;;;;;;15.57;10.82;;;15.00;99.90;;;;;;4966868;28;20547;-72
2023/08/30 07:21:17;;;;;;;13.07;9.95;;;15.00;99.90;;;;;;4957921;28;20553;-71
2023/08/30 07:23:42;;;;;;;12.32;9.80;;;15.00;99.90;;;;;;4966797;28;20031;-71
2023/08/30 07:26:08;;;;;;;13.70;9.52;;;15.00;99.90;;;;;;4944278;28;20435;-71
2023/08/30 07:28:33;;;;;;;12.85;10.43;;;15.00;99.90;;;;;;4964600;28;20444;-71
2023/08/30 07:31:05;;;;;;;12.38;9.85;;;15.00;99.90;;;;;;4958471;28;20366;-71
2023/08/30 07:33:31;;;;;;;14.60;10.50;;;14.90;99.90;;;;;;4945912;28;20058;-71
2023/08/30 07:35:57;;;;;;;13.18;9.57;;;14.90;99.90;;;;;;4958885;28;20049;-72
2023/08/30 07:38:23;;;;;;;12.38;10.13;;;14.90;99.90;;;;;;4943937;28;20052;-71
2023/08/30 07:40:48;;;;;;;14.30;8.57;;;14.80;99.90;;;;;;4955521;28;20058;-72
2023/08/30 07:43:16;;;;;;;15.02;10.25;;;14.80;99.90;;;;;;4952946;28;20032;-71
2023/08/30 07:45:45;;;;;;;11.73;8.73;;;14.70;99.90;;;;;;4964809;28;20113;-72
2023/08/30 07:48:12;;;;;;;13.65;9.60;;;14.60;99.90;;;;;;4958841;28;20027;-72
2023/08/30 07:50:37;;;;;;;14.23;9.90;;;14.50;99.90;;;;;;4957019;28;20027;-72
2023/08/30 07:53:03;;;;;;;13.23;9.75;;;14.50;99.90;;;;;;4958719;28;20038;-72
2023/08/30 07:55:29;;;;;;;11.63;8.45;;;14.40;99.90;;;;;;4954430;28;20027;-72
2023/08/30 07:57:55;;;;;;;14.55;9.25;;;14.30;99.90;;;;;;4936700;29;20091;-72
2023/08/30 08:00:21;;;;;;;17.95;10.57;;;14.30;99.90;;;;;;4958278;28;20162;-71
2023/08/30 08:02:46;;;;;;;12.63;8.20;;;14.30;99.90;;;;;;4957151;28;20106;-72
2023/08/30 08:05:12;;;;;;;15.80;9.70;;;14.20;99.90;;;;;;4958682;28;20035;-72
2023/08/30 08:07:39;;;;;;;16.55;10.52;;;14.20;99.90;;;;;;4955843;28;20120;-72
2023/08/30 08:10:05;;;;;;;14.88;8.70;;;14.20;99.90;;;;;;4963941;28;20018;-72
2023/08/30 08:12:35;;;;;;;16.15;9.90;;;14.20;99.90;;;;;;4954051;28;20244;-72
2023/08/30 08:15:01;;;;;;;13.60;8.80;;;14.10;99.90;;;;;;4960729;28;20046;-72
2023/08/30 08:17:27;;;;;;;15.73;9.25;;;14.10;99.90;;;;;;4960785;28;20027;-72
2023/08/30 08:19:53;;;;;;;13.65;8.65;;;14.00;99.90;;;;;;4961281;28;20066;-72
2023/08/30 08:22:18;;;;;;;15.68;9.50;;;14.00;99.90;;;;;;4953168;29;20031;-73
2023/08/30 08:24:45;;;;;;;17.85;9.73;;;14.00;99.90;;;;;;4955500;28;20041;-72
2023/08/30 08:27:12;;;;;;;17.20;10.02;;;14.00;99.90;;;;;;4962288;28;20042;-72
2023/08/30 08:29:38;;;;;;;14.80;9.90;;;14.10;99.90;;;;;;4961899;28;20050;-72
2023/08/30 08:32:03;;;;;;;14.90;8.60;;;14.10;99.90;;;;;;4967308;28;20023;-72
2023/08/30 08:34:29;;;;;;;15.15;9.55;;;14.10;99.90;;;;;;4956032;28;20026;-72
2023/08/30 08:36:56;;;;;;;12.10;8.50;;;14.20;99.90;;;;;;4964784;28;20479;-72
2023/08/30 08:39:24;;;;;;;18.75;9.90;;;14.10;99.90;;;;;;4955562;28;20526;-72
2023/08/30 08:41:54;;;;;;;13.27;9.63;;;14.10;99.90;;;;;;4963381;28;20506;-72
2023/08/30 08:44:22;;;;;;;11.55;8.80;;;14.10;99.90;;;;;;4958035;28;20027;-72
2023/08/30 08:46:49;;;;;;;17.15;11.27;;;14.10;99.90;;;;;;4955254;29;20089;-72
2023/08/30 08:49:17;;;;;;;13.32;9.52;;;14.20;99.90;;;;;;4968793;28;20034;-72
2023/08/30 08:51:44;;;;;;;15.15;11.27;;;14.20;99.90;;;;;;4945156;28;20090;-72
2023/08/30 08:54:11;;;;;;;16.23;10.98;;;14.20;99.90;;;;;;4962427;28;20051;-72
2023/08/30 08:56:44;;;;;;;14.75;10.18;;;14.20;99.90;;;;;;4963017;28;20022;-72
2023/08/30 08:59:10;;;;;;;14.00;9.02;;;14.20;99.90;;;;;;4965415;28;20030;-72
2023/08/30 09:01:39;;;;;;;16.95;11.68;;;14.20;99.90;;;;;;4969609;28;20436;-72
2023/08/30 09:04:10;;;;;;;14.05;10.20;;;14.20;99.90;;;;;;4965792;28;20033;-72
2023/08/30 09:06:45;;;;;;;17.70;11.60;;;14.20;99.90;;;;;;4968341;28;20027;-72
2023/08/30 09:09:11;;;;;;;17.23;11.82;;;14.20;99.90;;;;;;4963257;28;20838;-72
2023/08/30 09:11:40;;;;;;;12.27;9.57;;;14.20;99.90;;;;;;4959114;28;20027;-72
2023/08/30 09:14:06;;;;;;;15.30;10.48;;;14.20;99.90;;;;;;4968800;28;20031;-72
2023/08/30 09:16:31;;;;;;;15.30;11.35;;;14.20;99.90;;;;;;4955286;29;20458;-72
2023/08/30 09:18:59;;;;;;;11.55;8.27;;;14.20;99.90;;;;;;4955283;29;20065;-72
2023/08/30 09:21:24;;;;;;;13.57;9.68;;;14.30;99.90;;;;;;4954978;29;20031;-71
2023/08/30 09:24:03;;;;;;;11.80;8.73;;;14.20;99.90;;;;;;4954701;28;20035;-72
2023/08/30 09:26:34;;;;;;;11.32;8.02;;;14.30;99.90;;;;;;4963576;28;20435;-72
2023/08/30 09:29:04;;;;;;;14.25;8.75;;;14.30;99.90;;;;;;4953169;28;20027;-71
2023/08/30 09:31:37;;;;;;;9.82;7.13;;;14.30;99.90;;;;;;4971759;28;20188;-72
2023/08/30 09:34:06;;;;;;;11.98;8.75;;;14.30;99.90;;;;;;4965466;28;20415;-72
2023/08/30 09:36:40;;;;;;;8.65;6.85;;;14.30;99.90;;;;;;4968226;28;20031;-72
2023/08/30 09:39:14;;;;;;;9.75;6.78;;;14.30;99.90;;;;;;4958128;28;20082;-71
2023/08/30 09:41:45;;;;;;;10.00;7.63;;;14.30;99.90;;;;;;4962232;28;20042;-71
2023/08/30 09:44:21;;;;;;;8.90;6.63;;;14.40;99.90;;;;;;4968612;28;20046;-72
2023/08/30 09:46:52;;;;;;;9.95;6.78;;;14.40;99.90;;;;;;4951257;28;20038;-71
2023/08/30 09:49:25;;;;;;;10.38;6.57;;;14.40;99.90;;;;;;4960395;28;20572;-71
2023/08/30 09:51:52;;;;;;;10.15;6.15;;;14.40;99.90;;;;;;4962695;28;20034;-71
2023/08/30 09:54:20;;;;;;;8.40;6.43;;;14.40;99.90;;;;;;4962315;28;20102;-71
2023/08/30 09:56:52;;;;;;;9.52;7.53;;;14.50;99.90;;;;;;4954434;28;20023;-71
2023/08/30 09:59:22;;;;;;;10.63;7.90;;;14.60;99.90;;;;;;4958783;28;20124;-71
2023/08/30 10:01:48;;;;;;;10.38;7.28;;;14.60;99.90;;;;;;4967339;28;20491;-72
2023/08/30 10:04:15;;;;;;;10.80;8.05;;;14.70;99.90;;;;;;4962053;28;20023;-71
2023/08/30 10:06:41;;;;;;;8.20;6.78;;;14.70;99.90;;;;;;4959846;28;20051;-71
2023/08/30 10:09:08;;;;;;;8.98;6.90;;;14.70;99.90;;;;;;4957286;28;20566;-71
2023/08/30 10:11:35;;;;;;;11.40;8.57;;;14.80;99.90;;;;;;4957630;28;20023;-72
2023/08/30 10:14:06;;;;;;;13.20;8.00;;;14.80;99.90;;;;;;4958185;28;20023;-71
2023/08/30 10:16:51;;;;;;;10.65;7.85;;;14.90;99.90;;;;;;4954732;28;20083;-71
2023/08/30 10:19:27;;;;;;;11.40;8.98;;;14.90;99.90;;;;;;4970221;28;20030;-71
2023/08/30 10:22:08;;;;;;;12.32;9.15;;;15.00;99.90;;;;;;4960783;28;20489;-72
2023/08/30 10:24:42;;;;;;;12.85;8.93;;;15.00;99.90;;;;;;4965499;28;20133;-71
2023/08/30 10:27:11;;;;;;;12.70;9.10;;;15.10;99.90;;;;;;4961497;28;20080;-72
2023/08/30 10:29:40;;;;;;;9.63;6.65;;;15.10;99.90;;;;;;4960385;28;20449;-71
2023/08/30 10:32:09;;;;;;;11.93;9.70;;;15.20;99.90;;;;;;4962034;28;20202;-71
2023/08/30 10:34:36;;;;;;;10.63;9.10;;;15.20;99.90;;;;;;4955939;28;20079;-72
2023/08/30 10:37:15;;;;;;;10.80;7.90;;;15.30;99.90;;;;;;4959348;28;20019;-71
2023/08/30 10:39:42;;;;;;;14.18;10.23;;;15.30;99.90;;;;;;4963239;28;20034;-72
2023/08/30 10:42:09;;;;;;;10.32;8.52;;;15.40;99.90;;;;;;4961389;28;20035;-71
2023/08/30 10:44:34;;;;;;;10.73;9.50;;;15.40;99.90;;;;;;4951102;28;20041;-72
2023/08/30 10:47:04;;;;;;;12.55;10.13;;;15.50;99.90;;;;;;4955581;28;20039;-71
2023/08/30 10:49:38;;;;;;;14.10;10.90;;;15.60;99.90;;;;;;4957099;28;20379;-72
2023/08/30 10:52:11;;;;;;;11.02;8.98;;;15.60;99.90;;;;;;4953155;28;20043;-72
2023/08/30 10:54:40;;;;;;;9.90;8.90;;;15.70;99.90;;;;;;4953913;28;20062;-72
2023/08/30 10:57:12;;;;;;;12.20;9.95;;;15.70;99.90;;;;;;4953232;28;20102;-71
2023/08/30 10:59:37;;;;;;;10.85;9.13;;;15.80;99.90;;;;;;4952792;28;20023;-72
2023/08/30 11:02:04;;;;;;;13.02;10.88;;;15.90;99.90;;;;;;4953919;28;20560;-72
2023/08/30 11:04:30;;;;;;;12.95;11.57;;;15.90;99.90;;;;;;4952028;28;20134;-72
2023/08/30 11:06:56;;;;;;;15.82;14.13;;;16.00;99.90;;;;;;4955463;28;20110;-71
2023/08/30 11:09:24;;;;;;;12.23;10.77;;;16.00;99.90;;;;;;4952574;28;20027;-72
2023/08/30 11:11:54;;;;;;;13.00;11.15;;;16.10;99.90;;;;;;4956431;28;20019;-72
2023/08/30 11:14:19;;;;;;;13.75;12.25;;;16.30;99.90;;;;;;4953516;28;20058;-70
2023/08/30 11:16:45;;;;;;;14.13;12.73;;;16.40;99.90;;;;;;4952814;28;20055;-71
2023/08/30 11:19:11;;;;;;;13.80;12.38;;;16.50;99.90;;;;;;4955846;28;20034;-72
2023/08/30 11:21:45;;;;;;;13.95;11.13;;;16.50;99.90;;;;;;4953294;28;20051;-71
2023/08/30 11:24:12;;;;;;;14.80;13.02;;;16.50;99.90;;;;;;4956050;28;20038;-72
2023/08/30 11:26:37;;;;;;;14.05;12.65;;;16.50;99.90;;;;;;4955334;28;20027;-71
2023/08/30 11:29:09;;;;;;;13.80;12.30;;;16.60;99.90;;;;;;4954297;28;20031;-72
2023/08/30 11:31:35;;;;;;;16.05;14.27;;;16.60;99.90;;;;;;4951949;28;20019;-72
2023/08/30 11:34:02;;;;;;;14.07;12.68;;;16.50;99.90;;;;;;4956757;28;20120;-71
2023/08/30 11:36:29;;;;;;;12.90;11.57;;;16.50;99.90;;;;;;4956819;28;20054;-72
2023/08/30 11:38:56;;;;;;;12.15;10.38;;;16.60;99.90;;;;;;4962617;28;20047;-71
2023/08/30 11:41:23;;;;;;;10.77;9.68;;;16.60;99.90;;;;;;4963366;28;20049;-72
2023/08/30 11:43:50;;;;;;;11.82;10.10;;;16.60;99.90;;;;;;4951778;28;20032;-72
2023/08/30 11:46:16;;;;;;;10.05;8.60;;;16.60;99.90;;;;;;4962512;28;20031;-72
2023/08/30 11:48:43;;;;;;;11.60;8.98;;;16.70;99.90;;;;;;4963008;28;20031;-72
2023/08/30 11:51:10;;;;;;;8.40;7.50;;;16.80;99.90;;;;;;4940918;28;20565;-73
2023/08/30 11:53:37;;;;;;;10.90;8.93;;;16.90;99.90;;;;;;4945004;28;20106;-72
2023/08/30 11:56:03;;;;;;;8.65;7.15;;;17.00;99.90;;;;;;4960746;28;20027;-72
2023/08/30 11:58:33;;;;;;;9.27;8.27;;;17.10;99.90;;;;;;4944950;28;20058;-72
2023/08/30 12:00:59;;;;;;;8.70;6.97;;;17.20;99.90;;;;;;4940705;29;20370;-72
2023/08/30 12:03:28;;;;;;;9.60;7.85;;;17.30;99.90;;;;;;4958267;28;20303;-72
2023/08/30 12:05:54;;;;;;;9.35;7.97;;;17.40;99.90;;;;;;4956419;29;20078;-72
2023/08/30 12:08:22;;;;;;;8.30;6.63;;;17.50;99.90;;;;;;4958228;28;20015;-73
2023/08/30 12:10:52;;;;;;;9.40;6.75;;;17.60;99.90;;;;;;4953846;29;20168;-72
2023/08/30 12:13:27;;;;;;;8.65;4.65;;;17.60;99.90;;;;;;4968973;28;20031;-72
2023/08/30 12:15:54;;;;;;;8.95;4.65;;;17.50;99.90;;;;;;4956624;28;20035;-72
2023/08/30 12:18:24;;;;;;;8.20;4.38;;;17.40;99.90;;;;;;4967823;28;20035;-72
2023/08/30 12:20:58;;;;;;;9.70;3.85;;;17.30;99.90;;;;;;4958146;28;20015;-72
2023/08/30 12:23:28;;;;;;;7.43;3.78;;;17.30;99.90;;;;;;4964641;28;20027;-72
2023/08/30 12:26:04;;;;;;;5.15;2.88;;;17.20;99.90;;;;;;4960405;28;20037;-73
2023/08/30 12:28:31;;;;;;;8.48;3.35;;;17.10;99.90;;;;;;4965458;28;20029;-72
2023/08/30 12:30:57;;;;;;;9.40;3.80;;;17.10;99.90;;;;;;4969388;28;20035;-72
2023/08/30 12:33:25;;;;;;;8.40;3.38;;;17.00;99.90;;;;;;4957288;28;20023;-72
2023/08/30 12:35:54;;;;;;;7.75;3.45;;;17.00;99.90;;;;;;4957324;28;20504;-73
2023/08/30 12:38:21;;;;;;;10.95;3.80;;;16.90;99.90;;;;;;4955890;28;20050;-72
2023/08/30 12:40:49;;;;;;;8.68;3.17;;;16.90;99.90;;;;;;4969201;28;20037;-72